createdAt,value
2023-05-10T00:01:19.653Z,8.75
2023-05-10T00:03:46.857Z,7.00
2023-05-10T00:06:14.122Z,8.20
2023-05-10T00:08:41.281Z,5.82
2023-05-10T00:11:08.635Z,6.68
2023-05-10T00:13:35.786Z,7.85
2023-05-10T00:16:03.070Z,7.95
2023-05-10T00:18:30.323Z,8.30
2023-05-10T00:20:57.520Z,8.60
2023-05-10T00:23:24.668Z,8.60
2023-05-10T00:25:52.110Z,5.95
2023-05-10T00:28:19.308Z,9.98
2023-05-10T00:30:46.464Z,8.50
2023-05-10T00:33:13.685Z,8.52
2023-05-10T00:35:41.269Z,10.73
2023-05-10T00:38:08.455Z,12.10
2023-05-10T00:40:38.090Z,8.30
2023-05-10T00:43:06.026Z,8.63
2023-05-10T00:45:37.259Z,8.13
2023-05-10T00:48:05.480Z,10.45
2023-05-10T00:50:34.554Z,5.25
2023-05-10T00:53:03.168Z,9.38
2023-05-10T00:55:31.655Z,10.02
2023-05-10T00:57:58.994Z,8.32
2023-05-10T01:00:26.687Z,9.30
2023-05-10T01:02:56.913Z,8.25
2023-05-10T01:05:24.133Z,8.82
2023-05-10T01:07:51.934Z,6.40
2023-05-10T01:10:19.475Z,15.68
2023-05-10T01:12:48.659Z,10.38
2023-05-10T01:15:18.988Z,6.78
2023-05-10T01:17:49.804Z,10.13
2023-05-10T01:20:18.529Z,8.30
2023-05-10T01:23:42.623Z,10.20
2023-05-10T01:26:40.511Z,9.60
2023-05-10T01:29:07.599Z,9.52
2023-05-10T01:32:17.133Z,10.75
2023-05-10T01:35:31.302Z,7.63
2023-05-10T01:38:28.370Z,9.52
2023-05-10T01:41:18.176Z,7.80
2023-05-10T01:44:21.467Z,10.13
2023-05-10T01:47:21.204Z,7.20
2023-05-10T01:49:56.200Z,8.15
2023-05-10T01:52:42.948Z,6.45
2023-05-10T01:55:15.494Z,8.05
2023-05-10T01:57:45.824Z,8.82
2023-05-10T02:00:16.143Z,7.47
2023-05-10T02:02:48.751Z,8.48
2023-05-10T02:05:18.765Z,8.70
2023-05-10T02:07:47.160Z,9.55
2023-05-10T02:10:16.758Z,9.13
2023-05-10T02:12:48.440Z,7.50
2023-05-10T02:15:22.997Z,8.50
2023-05-10T02:17:51.084Z,7.32
2023-05-10T02:20:20.370Z,8.10
2023-05-10T02:22:52.613Z,7.85
2023-05-10T02:25:23.498Z,9.33
2023-05-10T02:27:55.212Z,7.78
2023-05-10T02:30:24.869Z,7.18
2023-05-10T02:32:53.279Z,10.48
2023-05-10T02:35:21.942Z,9.38
2023-05-10T02:37:50.018Z,8.63
2023-05-10T02:40:19.210Z,10.57
2023-05-10T02:42:51.480Z,9.10
2023-05-10T02:45:24.503Z,11.77
2023-05-10T02:47:51.970Z,9.13
2023-05-10T02:50:20.890Z,7.80
2023-05-10T02:52:55.137Z,8.88
2023-05-10T02:55:33.309Z,7.75
2023-05-10T02:58:03.214Z,8.30
2023-05-10T03:00:30.725Z,7.57
2023-05-10T03:02:58.209Z,8.00
2023-05-10T03:05:25.787Z,7.65
2023-05-10T03:07:54.409Z,8.85
2023-05-10T03:10:29.451Z,7.43
2023-05-10T03:13:33.710Z,7.97
2023-05-10T03:16:10.980Z,12.60
2023-05-10T03:19:28.514Z,7.55
2023-05-10T03:22:04.073Z,14.23
2023-05-10T03:24:34.678Z,11.57
2023-05-10T03:27:05.152Z,8.98
2023-05-10T03:29:33.994Z,14.40
2023-05-10T03:32:01.739Z,12.52
2023-05-10T03:34:32.322Z,8.25
2023-05-10T03:36:59.629Z,12.45
2023-05-10T03:39:26.898Z,11.73
2023-05-10T03:41:54.097Z,10.23
2023-05-10T03:44:21.385Z,8.07
2023-05-10T03:46:48.916Z,8.05
2023-05-10T03:49:16.420Z,8.52
2023-05-10T03:51:43.602Z,12.80
2023-05-10T03:54:10.773Z,7.28
2023-05-10T03:56:37.903Z,7.32
2023-05-10T03:59:08.303Z,8.32
2023-05-10T04:01:36.148Z,10.73
2023-05-10T04:04:03.582Z,10.20
2023-05-10T04:06:30.802Z,9.65
2023-05-10T04:09:00.950Z,11.35
2023-05-10T04:11:28.874Z,9.90
2023-05-10T04:13:56.026Z,7.55
2023-05-10T04:16:23.236Z,6.95
2023-05-10T04:18:50.446Z,10.02
2023-05-10T04:21:17.647Z,8.68
2023-05-10T04:23:44.896Z,7.90
2023-05-10T04:26:12.292Z,10.32
2023-05-10T04:28:39.738Z,7.00
2023-05-10T04:31:10.385Z,7.05
2023-05-10T04:33:38.115Z,7.45
2023-05-10T04:36:06.051Z,10.30
2023-05-10T04:38:33.368Z,8.57
2023-05-10T04:41:08.714Z,9.75
2023-05-10T04:43:37.132Z,12.50
2023-05-10T04:46:06.075Z,8.52
2023-05-10T04:48:33.290Z,8.23
2023-05-10T04:51:00.614Z,9.75
2023-05-10T04:53:27.759Z,8.50
2023-05-10T04:55:54.929Z,10.13
2023-05-10T04:58:22.338Z,11.93
2023-05-10T05:00:49.598Z,13.35
2023-05-10T05:03:16.864Z,7.95
2023-05-10T05:05:45.774Z,14.90
2023-05-10T05:08:13.713Z,13.35
2023-05-10T05:10:41.197Z,10.20
2023-05-10T05:13:08.378Z,9.30
2023-05-10T05:15:35.590Z,9.32
2023-05-10T05:18:02.807Z,11.27
2023-05-10T05:20:36.327Z,8.98
2023-05-10T05:23:03.510Z,10.00
2023-05-10T05:25:30.790Z,9.27
2023-05-10T05:27:58.001Z,9.38
2023-05-10T05:30:25.244Z,8.02
2023-05-10T05:32:52.442Z,11.73
2023-05-10T05:35:19.720Z,12.73
2023-05-10T05:37:46.895Z,16.13
2023-05-10T05:40:15.033Z,14.10
2023-05-10T05:42:42.385Z,11.63
2023-05-10T05:45:13.860Z,15.60
2023-05-10T05:47:41.480Z,16.30
2023-05-10T05:50:09.294Z,21.80
2023-05-10T05:52:37.002Z,12.38
2023-05-10T05:55:04.636Z,14.75
2023-05-10T05:57:32.047Z,14.07
2023-05-10T05:59:59.290Z,8.45
2023-05-10T06:02:26.723Z,12.98
2023-05-10T06:04:53.925Z,12.23
2023-05-10T06:07:21.290Z,15.50
2023-05-10T06:09:48.498Z,15.57
2023-05-10T06:12:15.672Z,12.15
2023-05-10T06:14:42.873Z,10.57
2023-05-10T06:17:10.115Z,12.15
2023-05-10T06:19:37.759Z,9.23
2023-05-10T06:22:05.035Z,10.48
2023-05-10T06:24:32.227Z,10.93
2023-05-10T06:27:01.116Z,14.77
2023-05-10T06:29:28.356Z,18.23
2023-05-10T06:31:55.701Z,14.32
2023-05-10T06:34:23.039Z,13.85
2023-05-10T06:36:52.920Z,15.23
2023-05-10T06:39:20.077Z,10.50
2023-05-10T06:41:47.271Z,10.98
2023-05-10T06:44:14.482Z,12.52
2023-05-10T06:46:42.692Z,12.27
2023-05-10T06:49:10.159Z,11.60
2023-05-10T06:51:37.345Z,12.20
2023-05-10T06:54:04.521Z,16.90
2023-05-10T06:56:31.681Z,18.85
2023-05-10T06:58:58.934Z,10.75
2023-05-10T07:01:26.188Z,11.77
2023-05-10T07:03:53.467Z,13.18
2023-05-10T07:06:32.398Z,8.73
2023-05-10T07:09:01.549Z,13.43
2023-05-10T07:11:28.790Z,9.35
2023-05-10T07:13:56.022Z,19.40
2023-05-10T07:16:23.358Z,19.40
2023-05-10T07:18:51.595Z,15.68
2023-05-10T07:21:18.828Z,11.68
2023-05-10T07:23:46.117Z,12.02
2023-05-10T07:26:13.254Z,9.73
2023-05-10T07:28:40.480Z,20.17
2023-05-10T07:31:07.704Z,9.75
2023-05-10T07:33:34.849Z,17.85
2023-05-10T07:36:01.976Z,12.48
2023-05-10T07:38:29.096Z,9.57
2023-05-10T07:40:56.236Z,10.38
2023-05-10T07:43:23.561Z,11.23
2023-05-10T07:45:50.760Z,11.93
2023-05-10T07:48:17.916Z,14.40
2023-05-10T07:50:45.049Z,10.60
2023-05-10T07:53:12.199Z,10.82
2023-05-10T07:55:39.491Z,13.35
2023-05-10T07:58:07.150Z,11.80
2023-05-10T08:00:35.624Z,12.18
2023-05-10T08:03:02.964Z,12.65
2023-05-10T08:05:30.498Z,11.02
2023-05-10T08:07:57.676Z,15.82
2023-05-10T08:10:25.727Z,12.18
2023-05-10T08:12:52.870Z,13.75
2023-05-10T08:15:20.120Z,15.30
2023-05-10T08:17:47.364Z,17.45
2023-05-10T08:20:17.628Z,78.93
2023-05-10T08:22:44.859Z,14.10
2023-05-10T08:25:12.297Z,21.08
2023-05-10T08:27:39.469Z,16.00
2023-05-10T08:30:07.699Z,15.38
2023-05-10T08:32:35.911Z,14.82
2023-05-10T08:35:03.598Z,16.13
2023-05-10T08:37:31.303Z,15.95
2023-05-10T08:39:58.485Z,29.55
2023-05-10T08:42:31.172Z,17.17
2023-05-10T08:45:00.212Z,19.33
2023-05-10T08:47:28.867Z,12.93
2023-05-10T08:49:58.041Z,15.55
2023-05-10T08:52:28.374Z,13.90
2023-05-10T08:54:55.951Z,12.63
2023-05-10T08:57:23.581Z,12.32
2023-05-10T08:59:50.841Z,16.40
2023-05-10T09:02:20.543Z,13.85
2023-05-10T09:04:47.878Z,15.00
2023-05-10T09:07:15.328Z,23.48
2023-05-10T09:09:42.926Z,15.55
2023-05-10T09:12:12.477Z,14.75
2023-05-10T09:14:40.452Z,15.60
2023-05-10T09:17:07.916Z,15.98
2023-05-10T09:19:35.161Z,19.48
2023-05-10T09:22:03.353Z,16.90
2023-05-10T09:24:31.538Z,15.68
2023-05-10T09:27:01.564Z,19.15
2023-05-10T09:29:43.642Z,21.52
2023-05-10T09:32:10.803Z,17.02
2023-05-10T09:34:40.924Z,19.08
2023-05-10T09:37:09.156Z,32.38
2023-05-10T09:39:38.600Z,31.50
2023-05-10T09:42:08.804Z,23.20
2023-05-10T09:44:37.041Z,21.85
2023-05-10T09:47:04.758Z,27.85
2023-05-10T09:49:31.953Z,29.95
2023-05-10T09:52:08.545Z,25.48
2023-05-10T09:54:36.179Z,23.45
2023-05-10T09:57:03.448Z,21.10
2023-05-10T09:59:31.276Z,17.45
2023-05-10T10:02:00.615Z,20.58
2023-05-10T10:04:28.948Z,19.48
2023-05-10T10:07:04.788Z,22.52
2023-05-10T10:09:33.479Z,19.92
2023-05-10T10:12:03.040Z,18.83
2023-05-10T10:14:30.908Z,24.15
2023-05-10T10:17:06.640Z,20.77
2023-05-10T10:19:38.822Z,21.50
2023-05-10T10:22:06.991Z,19.33
2023-05-10T10:24:34.742Z,22.58
2023-05-10T10:27:20.517Z,21.45
2023-05-10T10:30:07.556Z,22.15
2023-05-10T10:32:53.346Z,21.70
2023-05-10T10:35:20.859Z,23.90
2023-05-10T10:37:51.658Z,20.15
2023-05-10T10:40:26.825Z,21.48
2023-05-10T10:42:55.173Z,21.65
2023-05-10T10:45:23.988Z,22.15
2023-05-10T10:48:24.082Z,26.20
2023-05-10T10:50:58.992Z,19.60
2023-05-10T10:53:30.012Z,16.55
2023-05-10T10:56:11.234Z,12.13
2023-05-10T10:58:40.450Z,13.65
2023-05-10T11:01:37.694Z,12.23
2023-05-10T11:04:05.041Z,11.02
2023-05-10T11:06:36.768Z,11.95
2023-05-10T11:09:13.279Z,10.48
2023-05-10T11:11:53.471Z,10.93
2023-05-10T11:14:23.482Z,11.60
2023-05-10T11:16:51.571Z,10.27
2023-05-10T11:19:20.886Z,6.68
2023-05-10T11:22:11.953Z,6.35
2023-05-10T11:24:39.127Z,8.55
2023-05-10T11:27:09.365Z,6.00
2023-05-10T11:29:36.501Z,4.30
2023-05-10T11:32:09.059Z,3.10
2023-05-10T11:34:36.205Z,2.53
2023-05-10T11:37:03.458Z,2.50
2023-05-10T11:39:32.892Z,2.40
2023-05-10T11:42:01.056Z,2.05
2023-05-10T11:44:33.447Z,2.72
2023-05-10T11:47:02.655Z,4.22
2023-05-10T11:49:29.963Z,2.90
2023-05-10T11:52:11.944Z,2.60
2023-05-10T11:54:45.517Z,2.13
2023-05-10T11:57:12.712Z,1.70
2023-05-10T11:59:41.730Z,2.00
2023-05-10T12:02:11.382Z,1.85
2023-05-10T12:04:39.163Z,3.38
2023-05-10T12:07:06.729Z,2.00
2023-05-10T12:09:43.346Z,2.15
2023-05-10T12:12:11.640Z,3.33
2023-05-10T12:14:38.824Z,2.50
2023-05-10T12:17:05.998Z,2.63
2023-05-10T12:19:40.119Z,3.67
2023-05-10T12:22:07.461Z,4.53
2023-05-10T12:24:37.154Z,3.00
2023-05-10T12:27:09.614Z,4.00
2023-05-10T12:29:37.435Z,3.67
2023-05-10T12:32:04.879Z,3.40
2023-05-10T12:34:36.976Z,3.80
2023-05-10T12:37:05.011Z,4.23
2023-05-10T12:39:44.019Z,2.95
2023-05-10T12:42:11.924Z,7.68
2023-05-10T12:44:40.739Z,4.25
2023-05-10T12:47:08.361Z,2.58
2023-05-10T12:49:35.603Z,2.50
2023-05-10T12:52:02.854Z,2.80
2023-05-10T12:54:30.007Z,3.22
2023-05-10T12:56:57.158Z,3.53
2023-05-10T12:59:24.330Z,3.25
2023-05-10T13:01:51.457Z,2.80
2023-05-10T13:04:18.616Z,2.58
2023-05-10T13:06:45.817Z,3.42
2023-05-10T13:09:12.993Z,6.55
2023-05-10T13:11:40.479Z,3.28
2023-05-10T13:14:07.936Z,3.30
2023-05-10T13:16:35.230Z,4.20
2023-05-10T13:19:02.441Z,3.78
2023-05-10T13:21:29.665Z,4.15
2023-05-10T13:23:56.834Z,4.30
2023-05-10T13:26:24.020Z,4.88
2023-05-10T13:28:52.509Z,3.60
2023-05-10T13:31:19.977Z,3.47
2023-05-10T13:33:47.156Z,4.93
2023-05-10T13:36:14.302Z,3.58
2023-05-10T13:38:41.468Z,2.97
2023-05-10T13:41:08.677Z,4.63
2023-05-10T13:43:36.968Z,5.38
2023-05-10T13:46:04.254Z,4.60
2023-05-10T13:48:31.469Z,4.90
2023-05-10T13:50:58.692Z,4.05
2023-05-10T13:53:25.887Z,3.90
2023-05-10T13:55:53.071Z,3.90
2023-05-10T13:58:20.255Z,3.35
2023-05-10T14:00:47.425Z,5.47
2023-05-10T14:03:14.639Z,4.28
2023-05-10T14:05:41.911Z,5.63
2023-05-10T14:08:10.346Z,3.33
2023-05-10T14:10:37.877Z,7.70
2023-05-10T14:13:05.070Z,5.88
2023-05-10T14:15:32.265Z,4.75
2023-05-10T14:17:59.495Z,5.82
2023-05-10T14:20:27.134Z,6.63
2023-05-10T14:22:54.301Z,6.80
2023-05-10T14:25:21.722Z,6.72
2023-05-10T14:27:48.926Z,4.90
2023-05-10T14:30:16.129Z,4.93
2023-05-10T14:32:43.427Z,6.55
2023-05-10T14:35:13.107Z,5.75
2023-05-10T14:37:40.799Z,5.57
2023-05-10T14:40:10.254Z,9.20
2023-05-10T14:42:37.557Z,6.25
2023-05-10T14:45:05.686Z,6.63
2023-05-10T14:47:32.909Z,5.90
2023-05-10T14:50:00.169Z,5.82
2023-05-10T14:52:27.798Z,6.80
2023-05-10T14:54:54.972Z,7.90
2023-05-10T14:57:22.146Z,5.68
2023-05-10T14:59:49.310Z,5.78
2023-05-10T15:02:17.201Z,5.80
2023-05-10T15:04:44.845Z,5.85
2023-05-10T15:07:15.309Z,7.55
2023-05-10T15:09:42.604Z,7.25
2023-05-10T15:12:09.791Z,6.95
2023-05-10T15:14:37.625Z,7.65
2023-05-10T15:17:07.950Z,6.07
2023-05-10T15:19:35.194Z,8.60
2023-05-10T15:22:03.195Z,6.53
2023-05-10T15:24:31.677Z,8.43
2023-05-10T15:26:58.876Z,7.05
2023-05-10T15:29:26.048Z,6.72
2023-05-10T15:31:53.602Z,9.15
2023-05-10T15:34:21.069Z,8.20
2023-05-10T15:36:48.285Z,6.30
2023-05-10T15:39:15.480Z,7.43
2023-05-10T15:41:42.655Z,8.35
2023-05-10T15:44:09.786Z,6.38
2023-05-10T15:46:38.785Z,9.93
2023-05-10T15:49:06.729Z,5.72
2023-05-10T15:51:35.909Z,11.02
2023-05-10T15:54:07.517Z,7.55
2023-05-10T15:56:35.872Z,8.88
2023-05-10T15:59:03.726Z,8.93
2023-05-10T16:01:32.522Z,8.07
2023-05-10T16:04:00.932Z,7.57
2023-05-10T16:06:28.260Z,7.20
2023-05-10T16:08:55.433Z,9.00
2023-05-10T16:11:22.719Z,6.95
2023-05-10T16:13:50.016Z,7.88
2023-05-10T16:16:17.305Z,6.63
2023-05-10T16:18:44.652Z,8.55
2023-05-10T16:21:11.950Z,7.20
2023-05-10T16:23:39.697Z,8.88
2023-05-10T16:26:07.510Z,7.43
2023-05-10T16:28:35.158Z,13.98
2023-05-10T16:31:02.389Z,12.93
2023-05-10T16:33:29.629Z,11.00
2023-05-10T16:35:56.886Z,16.90
2023-05-10T16:38:24.034Z,12.82
2023-05-10T16:40:51.181Z,9.05
2023-05-10T16:43:19.200Z,10.15
2023-05-10T16:45:46.338Z,9.25
2023-05-10T16:48:13.478Z,10.10
2023-05-10T16:50:44.412Z,11.65
2023-05-10T16:53:11.749Z,12.27
2023-05-10T16:55:39.009Z,12.02
2023-05-10T16:58:06.235Z,14.23
2023-05-10T17:00:33.829Z,13.82
2023-05-10T17:03:01.236Z,13.63
2023-05-10T17:05:29.418Z,12.98
2023-05-10T17:07:56.587Z,15.70
2023-05-10T17:10:23.777Z,14.68
2023-05-10T17:12:51.325Z,16.50
2023-05-10T17:15:19.462Z,12.30
2023-05-10T17:17:47.718Z,14.00
2023-05-10T17:20:14.946Z,12.43
2023-05-10T17:22:42.114Z,15.38
2023-05-10T17:25:09.607Z,16.02
2023-05-10T17:27:37.010Z,14.50
2023-05-10T17:30:04.857Z,14.18
2023-05-10T17:32:32.172Z,16.92
2023-05-10T17:34:59.418Z,16.77
2023-05-10T17:37:26.577Z,20.75
2023-05-10T17:39:53.751Z,19.33
2023-05-10T17:42:21.079Z,21.25
2023-05-10T17:44:48.236Z,16.70
2023-05-10T17:47:15.510Z,16.98
2023-05-10T17:49:42.702Z,19.73
2023-05-10T17:52:09.919Z,21.65
2023-05-10T17:54:37.080Z,21.75
2023-05-10T17:57:04.280Z,21.83
2023-05-10T17:59:31.458Z,26.60
2023-05-10T18:01:58.635Z,27.25
2023-05-10T18:04:26.122Z,87.05
2023-05-10T18:07:00.947Z,60.67
2023-05-10T18:09:28.713Z,27.00
2023-05-10T18:11:55.908Z,18.52
2023-05-10T18:14:38.997Z,23.77
2023-05-10T18:17:07.835Z,16.60
2023-05-10T18:19:35.339Z,19.77
2023-05-10T18:22:02.719Z,24.45
2023-05-10T18:24:40.215Z,17.92
2023-05-10T18:27:10.572Z,21.80
2023-05-10T18:29:37.864Z,16.15
2023-05-10T18:32:05.481Z,42.80
2023-05-10T18:34:32.678Z,24.92
2023-05-10T18:37:00.052Z,22.95
2023-05-10T18:39:27.326Z,19.73
2023-05-10T18:41:54.568Z,19.00
2023-05-10T18:44:23.209Z,20.10
2023-05-10T18:46:54.050Z,19.92
2023-05-10T18:49:21.365Z,20.38
2023-05-10T18:51:48.513Z,18.45
2023-05-10T18:54:15.747Z,29.95
2023-05-10T18:56:45.095Z,31.52
2023-05-10T18:59:12.871Z,30.52
2023-05-10T19:01:43.334Z,32.10
2023-05-10T19:04:10.645Z,25.33
2023-05-10T19:06:37.925Z,23.40
2023-05-10T19:09:05.101Z,21.23
2023-05-10T19:11:34.258Z,22.45
2023-05-10T19:14:02.327Z,29.23
2023-05-10T19:16:30.423Z,23.75
2023-05-10T19:18:57.856Z,26.15
2023-05-10T19:21:25.283Z,24.05
2023-05-10T19:23:53.645Z,23.33
2023-05-10T19:26:21.738Z,23.27
2023-05-10T19:28:52.051Z,22.70
2023-05-10T19:31:21.282Z,22.48
2023-05-10T19:33:49.101Z,19.83
2023-05-10T19:36:16.529Z,23.05
2023-05-10T19:38:43.707Z,29.70
2023-05-10T19:41:11.601Z,22.38
2023-05-10T19:43:39.600Z,20.80
2023-05-10T19:46:06.958Z,20.20
2023-05-10T19:48:34.155Z,20.63
2023-05-10T19:51:03.757Z,21.05
2023-05-10T19:53:32.371Z,18.02
2023-05-10T19:56:05.211Z,20.08
2023-05-10T19:58:33.871Z,18.65
2023-05-10T20:01:01.598Z,20.42
2023-05-10T20:03:29.208Z,18.38
2023-05-10T20:05:56.459Z,21.10
2023-05-10T20:08:24.417Z,23.38
2023-05-10T20:10:51.572Z,18.92
2023-05-10T20:13:18.692Z,23.33
2023-05-10T20:15:46.571Z,52.65
2023-05-10T20:18:13.808Z,33.33
2023-05-10T20:20:41.105Z,21.67
2023-05-10T20:23:08.304Z,25.00
2023-05-10T20:25:35.562Z,22.85
2023-05-10T20:28:03.667Z,25.70
2023-05-10T20:30:30.937Z,24.33
2023-05-10T20:32:58.257Z,19.33
2023-05-10T20:35:25.550Z,20.92
2023-05-10T20:37:52.779Z,22.13
2023-05-10T20:40:20.289Z,22.52
2023-05-10T20:42:47.757Z,22.30
2023-05-10T20:45:15.717Z,20.13
2023-05-10T20:47:43.006Z,19.00
2023-05-10T20:50:11.623Z,27.50
2023-05-10T20:52:38.847Z,24.60
2023-05-10T20:55:06.777Z,19.23
2023-05-10T20:57:33.977Z,19.33
2023-05-10T21:00:01.148Z,20.15
2023-05-10T21:02:28.374Z,21.85
2023-05-10T21:04:57.752Z,23.55
2023-05-10T21:07:25.428Z,25.65
2023-05-10T21:09:52.583Z,27.80
2023-05-10T21:12:19.833Z,24.35
2023-05-10T21:14:47.733Z,21.77
2023-05-10T21:17:14.904Z,22.52
2023-05-10T21:19:43.874Z,25.83
2023-05-10T21:22:11.090Z,23.20
2023-05-10T21:24:38.478Z,23.30
2023-05-10T21:27:07.732Z,21.10
2023-05-10T21:29:34.983Z,23.63
2023-05-10T21:32:02.493Z,28.80
2023-05-10T21:34:30.113Z,31.85
2023-05-10T21:36:57.295Z,26.38
2023-05-10T21:39:24.471Z,30.63
2023-05-10T21:41:51.681Z,28.25
2023-05-10T21:44:18.920Z,27.63
2023-05-10T21:46:46.070Z,23.58
2023-05-10T21:49:13.222Z,26.40
2023-05-10T21:51:40.373Z,28.17
2023-05-10T21:54:07.676Z,29.08
2023-05-10T21:56:34.845Z,25.27
2023-05-10T21:59:02.012Z,24.50
2023-05-10T22:01:29.161Z,25.02
2023-05-10T22:03:56.419Z,24.73
2023-05-10T22:06:24.123Z,26.48
2023-05-10T22:08:51.310Z,28.63
2023-05-10T22:11:18.501Z,26.33
2023-05-10T22:13:45.664Z,27.63
2023-05-10T22:16:13.031Z,29.63
2023-05-10T22:18:40.313Z,27.45
2023-05-10T22:21:10.279Z,32.13
2023-05-10T22:23:37.502Z,28.23
2023-05-10T22:26:04.764Z,31.80
2023-05-10T22:28:31.924Z,29.35
2023-05-10T22:30:59.213Z,28.98
2023-05-10T22:33:26.370Z,29.67
2023-05-10T22:35:53.589Z,28.05
2023-05-10T22:38:20.738Z,28.50
2023-05-10T22:40:47.952Z,30.15
2023-05-10T22:43:16.920Z,30.88
2023-05-10T22:45:44.128Z,36.08
2023-05-10T22:48:11.325Z,35.83
2023-05-10T22:50:38.551Z,42.30
2023-05-10T22:53:06.645Z,42.40
2023-05-10T22:55:33.974Z,37.83
2023-05-10T22:58:01.410Z,37.95
2023-05-10T23:00:28.556Z,38.22
2023-05-10T23:02:55.856Z,39.60
2023-05-10T23:05:23.048Z,40.95
2023-05-10T23:07:53.210Z,42.80
2023-05-10T23:10:20.636Z,45.60
2023-05-10T23:12:48.088Z,39.17
2023-05-10T23:15:15.359Z,39.40
2023-05-10T23:17:42.622Z,41.08
2023-05-10T23:20:10.847Z,39.83
2023-05-10T23:22:38.115Z,42.25
2023-05-10T23:25:05.962Z,36.35
2023-05-10T23:27:33.257Z,43.45
2023-05-10T23:30:00.588Z,40.40
2023-05-10T23:32:27.780Z,34.10
2023-05-10T23:34:55.487Z,36.92
2023-05-10T23:37:22.636Z,33.65
2023-05-10T23:39:49.785Z,34.85
2023-05-10T23:42:16.944Z,37.00
2023-05-10T23:44:44.107Z,34.25
2023-05-10T23:47:11.301Z,36.08
2023-05-10T23:49:38.466Z,32.38
2023-05-10T23:52:05.656Z,34.47
2023-05-10T23:54:32.865Z,34.45
2023-05-10T23:57:00.041Z,35.60
2023-05-10T23:59:27.330Z,35.60
